createdAt,value
2019-05-21T00:00:10.856Z,2.17
2019-05-21T00:02:39.699Z,2.33
2019-05-21T00:05:08.619Z,1.90
2019-05-21T00:07:37.578Z,2.15
2019-05-21T00:10:07.404Z,2.17
2019-05-21T00:12:36.285Z,1.90
2019-05-21T00:15:06.932Z,2.22
2019-05-21T00:17:35.880Z,1.82
2019-05-21T00:20:07.444Z,1.82
2019-05-21T00:22:36.331Z,2.00
2019-05-21T00:25:06.802Z,2.00
2019-05-21T00:27:36.151Z,2.08
2019-05-21T00:30:40.933Z,1.92
2019-05-21T00:33:45.591Z,1.70
2019-05-21T00:36:52.244Z,1.82
2019-05-21T00:39:56.948Z,2.00
2019-05-21T00:42:31.661Z,2.15
2019-05-21T00:47:28.468Z,1.90
2019-05-21T00:49:57.279Z,2.25
2019-05-21T00:52:26.080Z,1.72
2019-05-21T00:54:55.801Z,2.05
2019-05-21T00:57:24.564Z,1.70
2019-05-21T00:59:53.319Z,2.37
2019-05-21T01:02:22.124Z,2.27
2019-05-21T01:05:00.261Z,2.40
2019-05-21T01:07:21.348Z,2.45
2019-05-21T01:09:50.171Z,2.62
2019-05-21T01:12:19.062Z,2.50
2019-05-21T01:14:48.512Z,2.70
2019-05-21T01:17:17.355Z,3.12
2019-05-21T01:19:46.149Z,3.40
2019-05-21T01:22:14.914Z,2.67
2019-05-21T01:24:43.653Z,3.20
2019-05-21T01:27:12.458Z,3.50
2019-05-21T01:29:41.164Z,3.33
2019-05-21T01:32:11.021Z,3.10
2019-05-21T01:34:39.696Z,3.83
2019-05-21T01:37:08.443Z,3.55
2019-05-21T01:39:37.273Z,4.03
2019-05-21T01:42:06.215Z,3.77
2019-05-21T01:44:35.016Z,4.00
2019-05-21T01:47:03.881Z,4.20
2019-05-21T01:49:32.737Z,4.58
2019-05-21T01:52:01.632Z,4.67
2019-05-21T01:54:30.465Z,4.25
2019-05-21T01:56:59.268Z,4.58
2019-05-21T01:59:28.009Z,4.90
2019-05-21T02:01:56.738Z,4.33
2019-05-21T02:04:25.625Z,4.47
2019-05-21T02:06:54.512Z,4.25
2019-05-21T02:09:23.301Z,5.28
2019-05-21T02:11:52.100Z,4.92
2019-05-21T02:14:20.931Z,5.15
2019-05-21T02:16:49.665Z,5.10
2019-05-21T02:19:18.528Z,5.55
2019-05-21T02:21:47.273Z,5.60
2019-05-21T02:24:16.018Z,4.92
2019-05-21T02:26:44.878Z,5.97
2019-05-21T02:29:13.761Z,5.35
2019-05-21T02:31:42.639Z,5.75
2019-05-21T02:34:11.433Z,5.30
2019-05-21T02:36:40.199Z,5.58
2019-05-21T02:39:09.128Z,5.53
2019-05-21T02:41:38.017Z,6.37
2019-05-21T02:44:06.831Z,5.45
2019-05-21T02:46:35.718Z,5.65
2019-05-21T02:49:04.459Z,6.10
2019-05-21T02:51:33.269Z,5.65
2019-05-21T02:54:02.033Z,5.90
2019-05-21T02:56:30.853Z,6.05
2019-05-21T02:58:59.691Z,5.47
2019-05-21T03:01:32.850Z,5.50
2019-05-21T03:04:01.675Z,5.20
2019-05-21T03:06:30.514Z,5.58
2019-05-21T03:08:59.434Z,6.30
2019-05-21T03:11:28.244Z,6.28
2019-05-21T03:13:57.059Z,5.75
2019-05-21T03:16:25.849Z,5.87
2019-05-21T03:18:54.719Z,5.85
2019-05-21T03:21:23.514Z,6.42
2019-05-21T03:23:52.339Z,5.40
2019-05-21T03:26:21.160Z,5.72
2019-05-21T03:28:49.959Z,5.80
2019-05-21T03:31:18.715Z,6.03
2019-05-21T03:33:47.472Z,5.92
2019-05-21T03:36:31.736Z,5.67
2019-05-21T03:38:46.881Z,5.53
2019-05-21T03:41:15.553Z,5.67
2019-05-21T03:43:44.436Z,5.90
2019-05-21T03:46:13.233Z,5.75
2019-05-21T03:48:42.127Z,5.50
2019-05-21T03:51:10.938Z,5.92
2019-05-21T03:53:39.646Z,5.65
2019-05-21T03:56:08.535Z,5.35
2019-05-21T03:58:37.290Z,5.78
2019-05-21T04:01:06.128Z,5.85
2019-05-21T04:03:34.947Z,6.05
2019-05-21T04:06:03.761Z,5.97
2019-05-21T04:08:32.554Z,5.45
2019-05-21T04:11:01.376Z,5.55
2019-05-21T04:13:30.123Z,3.20
2019-05-21T04:16:06.237Z,4.72
2019-05-21T04:18:48.730Z,5.37
2019-05-21T04:21:17.634Z,2.70
2019-05-21T04:23:46.366Z,4.00
2019-05-21T04:26:15.200Z,4.37
2019-05-21T04:28:43.930Z,4.35
2019-05-21T04:31:12.744Z,4.42
2019-05-21T04:33:41.398Z,4.05
2019-05-21T04:36:10.171Z,4.58
2019-05-21T04:38:38.978Z,4.17
2019-05-21T04:41:07.795Z,4.22
2019-05-21T04:43:36.636Z,2.85
2019-05-21T04:46:05.467Z,4.28
2019-05-21T04:48:34.289Z,4.25
2019-05-21T04:51:03.113Z,4.15
2019-05-21T04:53:32.001Z,4.28
2019-05-21T04:56:00.663Z,4.33
2019-05-21T04:58:29.525Z,4.78
2019-05-21T05:00:58.337Z,4.15
2019-05-21T05:03:27.138Z,4.70
2019-05-21T05:05:55.917Z,4.50
2019-05-21T05:08:24.733Z,4.67
2019-05-21T05:10:53.554Z,4.62
2019-05-21T05:13:22.355Z,3.15
2019-05-21T05:15:51.072Z,4.92
2019-05-21T05:18:19.820Z,4.53
2019-05-21T05:20:48.609Z,4.92
2019-05-21T05:23:17.424Z,3.92
2019-05-21T05:25:46.245Z,4.78
2019-05-21T05:28:14.986Z,4.50
2019-05-21T05:30:43.803Z,5.45
2019-05-21T05:33:12.569Z,4.62
2019-05-21T05:35:41.384Z,5.10
2019-05-21T05:38:10.216Z,4.12
2019-05-21T05:40:39.060Z,5.53
2019-05-21T05:43:07.850Z,5.40
2019-05-21T05:45:36.744Z,5.28
2019-05-21T05:48:05.670Z,7.85
2019-05-21T05:50:39.092Z,5.55
2019-05-21T05:53:07.904Z,5.55
2019-05-21T05:55:36.845Z,6.97
2019-05-21T05:58:05.671Z,6.40
2019-05-21T06:00:34.490Z,5.95
2019-05-21T06:03:03.376Z,6.33
2019-05-21T06:05:39.543Z,6.33
2019-05-21T06:08:08.389Z,6.67
2019-05-21T06:10:40.004Z,6.25
2019-05-21T06:13:07.760Z,6.47
2019-05-21T06:15:36.619Z,6.47
2019-05-21T06:18:07.013Z,6.12
2019-05-21T06:20:35.946Z,6.47
2019-05-21T06:23:04.989Z,7.25
2019-05-21T06:25:33.806Z,6.92
2019-05-21T06:28:04.184Z,5.83
2019-05-21T06:30:34.216Z,7.22
2019-05-21T06:33:02.958Z,7.12
2019-05-21T06:35:31.876Z,6.33
2019-05-21T06:38:16.571Z,7.03
2019-05-21T06:40:31.212Z,6.90
2019-05-21T06:43:00.056Z,7.62
2019-05-21T06:45:28.900Z,7.33
2019-05-21T06:47:57.964Z,6.78
2019-05-21T06:50:26.957Z,7.10
2019-05-21T06:52:57.459Z,7.47
2019-05-21T06:55:26.335Z,6.70
2019-05-21T06:57:55.727Z,8.93
2019-05-21T07:00:24.676Z,8.88
2019-05-21T07:02:53.512Z,7.87
2019-05-21T07:05:22.401Z,8.73
2019-05-21T07:07:51.305Z,7.35
2019-05-21T07:10:20.337Z,8.88
2019-05-21T07:13:00.109Z,7.28
2019-05-21T07:15:29.023Z,5.22
2019-05-21T07:17:58.526Z,9.50
2019-05-21T07:20:27.542Z,5.85
2019-05-21T07:22:56.606Z,9.63
2019-05-21T07:25:25.687Z,9.18
2019-05-21T07:27:55.793Z,7.37
2019-05-21T07:30:24.750Z,7.00
2019-05-21T07:32:53.791Z,9.30
2019-05-21T07:35:22.920Z,8.85
2019-05-21T07:37:51.853Z,9.53
2019-05-21T07:40:21.774Z,8.80
2019-05-21T07:42:50.735Z,7.03
2019-05-21T07:45:19.679Z,10.70
2019-05-21T07:47:48.593Z,8.28
2019-05-21T07:50:17.829Z,11.48
2019-05-21T07:52:46.666Z,9.88
2019-05-21T07:55:38.465Z,9.93
2019-05-21T07:58:07.355Z,7.62
2019-05-21T08:00:37.234Z,10.28
2019-05-21T08:03:06.252Z,11.28
2019-05-21T08:05:35.136Z,12.47
2019-05-21T08:08:04.374Z,11.60
2019-05-21T08:10:34.227Z,12.05
2019-05-21T08:13:04.946Z,11.20
2019-05-21T08:15:33.898Z,11.83
2019-05-21T08:18:02.785Z,11.22
2019-05-21T08:20:33.421Z,12.70
2019-05-21T08:23:03.888Z,9.15
2019-05-21T08:25:38.780Z,11.88
2019-05-21T08:28:11.641Z,11.48
2019-05-21T08:30:40.151Z,8.23
2019-05-21T08:36:40.089Z,13.38
2019-05-21T08:42:21.959Z,10.95
2019-05-21T08:44:44.288Z,9.38
2019-05-21T08:47:16.232Z,7.30
2019-05-21T08:55:24.003Z,4.85
2019-05-21T09:12:22.738Z,4.20
2019-05-21T09:14:35.821Z,5.72
2019-05-21T09:17:56.935Z,5.47
2019-05-21T09:26:24.059Z,5.33
2019-05-21T09:28:58.452Z,5.47
2019-05-21T09:31:30.410Z,4.20
2019-05-21T09:34:04.686Z,4.35
2019-05-21T09:36:37.955Z,3.65
2019-05-21T09:39:21.415Z,4.58
2019-05-21T09:42:00.662Z,3.98
2019-05-21T09:44:33.612Z,5.25
2019-05-21T09:47:09.722Z,5.28
2019-05-21T09:49:36.208Z,5.90
2019-05-21T09:52:34.104Z,6.53
2019-05-21T10:04:42.232Z,5.58
2019-05-21T10:07:13.235Z,6.45
2019-05-21T10:09:45.366Z,5.80
2019-05-21T10:14:57.018Z,3.92
2019-05-21T11:20:35.186Z,4.83
2019-05-21T11:23:05.580Z,6.58
2019-05-21T11:25:49.695Z,5.70
2019-05-21T11:28:18.619Z,5.87
2019-05-21T11:30:50.681Z,4.10
2019-05-21T11:33:21.325Z,3.90
2019-05-21T11:35:50.295Z,3.65
2019-05-21T11:38:20.200Z,4.10
2019-05-21T11:40:51.131Z,4.17
2019-05-21T11:43:19.792Z,5.15
2019-05-21T11:45:48.642Z,3.55
2019-05-21T11:48:17.465Z,3.50
2019-05-21T11:50:46.283Z,5.47
2019-05-21T11:53:15.700Z,5.95
2019-05-21T11:55:44.666Z,6.00
2019-05-21T11:58:13.839Z,7.53
2019-05-21T12:00:42.807Z,5.62
2019-05-21T12:03:11.752Z,5.30
2019-05-21T12:05:40.926Z,4.03
2019-05-21T12:08:11.047Z,5.33
2019-05-21T12:10:40.516Z,6.40
2019-05-21T12:13:11.946Z,3.77
2019-05-21T12:15:42.401Z,4.90
2019-05-21T12:18:11.332Z,6.30
2019-05-21T12:20:40.258Z,8.28
2019-05-21T12:23:11.850Z,7.28
2019-05-21T12:25:40.799Z,6.83
2019-05-21T12:28:11.726Z,7.28
2019-05-21T12:30:40.373Z,6.50
2019-05-21T12:33:09.284Z,8.58
2019-05-21T12:35:38.379Z,7.03
2019-05-21T12:38:07.408Z,7.50
2019-05-21T12:40:36.316Z,6.42
2019-05-21T12:43:05.248Z,6.37
2019-05-21T12:45:34.242Z,7.08
2019-05-21T12:48:03.182Z,6.25
2019-05-21T12:50:32.170Z,8.98
2019-05-21T12:53:02.483Z,5.35
2019-05-21T12:55:31.512Z,4.03
2019-05-21T12:58:00.909Z,5.62
2019-05-21T13:00:31.496Z,7.00
2019-05-21T13:03:07.740Z,8.13
2019-05-21T13:05:36.705Z,10.50
2019-05-21T13:08:05.875Z,9.60
2019-05-21T13:10:36.380Z,5.75
2019-05-21T13:13:05.413Z,9.15
2019-05-21T13:15:34.326Z,9.23
2019-05-21T13:18:05.545Z,7.97
2019-05-21T13:20:34.412Z,7.70
2019-05-21T13:23:03.326Z,5.70
2019-05-21T13:25:32.215Z,8.50
2019-05-21T13:28:04.467Z,9.55
2019-05-21T13:30:33.451Z,10.85
2019-05-21T13:33:02.383Z,9.75
2019-05-21T13:35:31.331Z,10.13
2019-05-21T13:38:00.187Z,8.18
2019-05-21T13:40:30.028Z,6.03
2019-05-21T13:42:58.951Z,5.62
2019-05-21T13:45:27.913Z,5.72
2019-05-21T13:47:57.624Z,8.80
2019-05-21T13:50:26.630Z,4.67
2019-05-21T13:52:55.551Z,5.92
2019-05-21T13:55:24.478Z,5.65
2019-05-21T13:57:53.470Z,8.40
2019-05-21T14:00:27.026Z,3.62
2019-05-21T14:02:55.873Z,4.35
2019-05-21T14:05:26.314Z,9.40
2019-05-21T14:07:55.825Z,5.50
2019-05-21T14:10:24.948Z,6.53
2019-05-21T14:12:53.800Z,4.70
2019-05-21T14:15:22.716Z,5.62
2019-05-21T14:17:51.832Z,9.13
2019-05-21T14:20:21.083Z,9.50
2019-05-21T14:22:49.992Z,7.90
2019-05-21T14:25:18.941Z,9.30
2019-05-21T14:27:47.871Z,7.33
2019-05-21T14:30:17.224Z,8.78
2019-05-21T14:32:47.707Z,5.70
2019-05-21T14:35:19.726Z,5.08
2019-05-21T14:37:59.043Z,8.40
2019-05-21T14:40:32.093Z,5.72
2019-05-21T14:43:00.592Z,9.75
2019-05-21T14:45:33.672Z,11.63
2019-05-21T14:47:59.961Z,10.10
2019-05-21T14:50:28.880Z,8.25
2019-05-21T14:52:59.390Z,10.78
2019-05-21T14:55:28.248Z,7.95
2019-05-21T14:57:58.907Z,7.33
2019-05-21T15:00:39.006Z,8.50
2019-05-21T15:03:24.310Z,9.53
2019-05-21T15:05:42.532Z,14.68
2019-05-21T15:08:12.092Z,10.85
2019-05-21T15:10:48.559Z,13.25
2019-05-21T15:13:13.785Z,10.82
2019-05-21T15:15:48.779Z,14.80
2019-05-21T15:18:25.335Z,14.28
2019-05-21T15:21:03.298Z,10.68
2019-05-21T15:23:35.871Z,12.68
2019-05-21T15:26:05.554Z,8.75
2019-05-21T15:28:34.694Z,7.60
2019-05-21T15:31:03.689Z,12.23
2019-05-21T15:33:34.878Z,8.75
2019-05-21T15:36:03.879Z,9.15
2019-05-21T15:41:33.470Z,10.35
2019-05-21T15:44:02.446Z,9.23
2019-05-21T15:46:47.641Z,8.65
2019-05-21T15:52:08.050Z,8.38
2019-05-21T15:54:39.572Z,13.15
2019-05-21T15:57:11.269Z,10.70
2019-05-21T15:59:41.994Z,11.35
2019-05-21T16:02:15.457Z,11.80
2019-05-21T16:04:44.371Z,11.73
2019-05-21T16:07:14.511Z,11.65
2019-05-21T16:09:43.458Z,12.75
2019-05-21T16:12:12.395Z,10.38
2019-05-21T16:14:46.198Z,13.93
2019-05-21T16:17:15.142Z,13.83
2019-05-21T16:19:47.051Z,14.23
2019-05-21T16:22:16.026Z,13.28
2019-05-21T16:24:46.568Z,12.65
2019-05-21T16:27:23.957Z,7.92
2019-05-21T16:29:54.479Z,12.13
2019-05-21T16:32:23.356Z,11.93
2019-05-21T16:34:53.395Z,13.50
2019-05-21T16:37:22.816Z,10.00
2019-05-21T16:39:51.750Z,10.78
2019-05-21T16:48:28.659Z,8.65
2019-05-21T16:50:57.870Z,11.60
2019-05-21T16:53:26.789Z,12.37
2019-05-21T16:55:55.760Z,8.93
2019-05-21T16:58:24.660Z,11.97
2019-05-21T17:00:53.629Z,11.50
2019-05-21T17:03:22.535Z,10.82
2019-05-21T17:05:52.044Z,9.10
2019-05-21T17:08:20.934Z,12.03
2019-05-21T17:10:49.889Z,11.22
2019-05-21T17:13:19.044Z,11.20
2019-05-21T17:15:49.340Z,12.23
2019-05-21T17:18:19.041Z,11.05
2019-05-21T17:20:47.949Z,12.43
2019-05-21T17:23:17.963Z,10.00
2019-05-21T17:25:46.986Z,8.98
2019-05-21T17:28:16.101Z,10.08
2019-05-21T17:30:45.291Z,10.60
2019-05-21T17:33:14.924Z,12.07
2019-05-21T17:35:47.426Z,7.70
2019-05-21T17:38:16.366Z,7.80
2019-05-21T17:40:45.361Z,8.83
2019-05-21T17:43:14.414Z,11.38
2019-05-21T17:45:43.368Z,9.18
2019-05-21T17:48:12.291Z,11.03
2019-05-21T17:50:41.667Z,9.48
2019-05-21T17:53:10.696Z,7.97
2019-05-21T17:55:39.636Z,11.25
2019-05-21T17:58:08.569Z,6.70
2019-05-21T18:00:44.936Z,9.13
2019-05-21T18:03:14.482Z,9.68
2019-05-21T18:05:45.107Z,11.22
2019-05-21T18:08:17.040Z,9.50
2019-05-21T18:10:44.909Z,9.70
2019-05-21T18:13:14.029Z,11.53
2019-05-21T18:15:43.369Z,11.25
2019-05-21T18:18:12.438Z,10.90
2019-05-21T18:20:50.405Z,11.75
2019-05-21T18:23:19.497Z,9.03
2019-05-21T18:25:48.529Z,6.58
2019-05-21T18:28:17.386Z,9.05
2019-05-21T18:30:46.627Z,9.95
2019-05-21T18:33:18.052Z,11.65
2019-05-21T18:35:48.478Z,9.63
2019-05-21T18:38:17.653Z,12.20
2019-05-21T18:40:46.723Z,11.00
2019-05-21T18:45:56.680Z,9.40
2019-05-21T18:48:25.517Z,9.65
2019-05-21T18:50:54.439Z,8.83
2019-05-21T18:53:23.213Z,11.78
2019-05-21T18:55:52.080Z,11.70
2019-05-21T18:58:20.977Z,12.85
2019-05-21T19:00:49.926Z,13.40
2019-05-21T19:03:25.356Z,12.43
2019-05-21T19:05:51.482Z,13.48
2019-05-21T19:08:20.345Z,11.70
2019-05-21T19:10:49.393Z,13.85
2019-05-21T19:13:18.637Z,12.13
2019-05-21T19:15:47.544Z,12.33
2019-05-21T19:18:16.570Z,11.90
2019-05-21T19:20:45.493Z,13.32
2019-05-21T19:23:14.438Z,13.22
2019-05-21T19:25:46.991Z,15.30
2019-05-21T19:28:15.871Z,14.55
2019-05-21T19:31:07.186Z,12.53
2019-05-21T19:33:15.744Z,14.50
2019-05-21T19:35:45.586Z,14.33
2019-05-21T19:38:14.488Z,14.75
2019-05-21T19:40:44.630Z,16.10
2019-05-21T19:43:13.525Z,13.20
2019-05-21T19:45:42.527Z,16.35
2019-05-21T19:48:11.456Z,16.73
2019-05-21T19:50:40.473Z,16.25
2019-05-21T19:53:09.536Z,16.37
2019-05-21T19:55:38.751Z,16.52
2019-05-21T19:58:08.075Z,16.57
2019-05-21T20:00:38.548Z,17.30
2019-05-21T20:03:07.768Z,17.07
2019-05-21T20:05:36.837Z,16.23
2019-05-21T20:08:06.122Z,17.67
2019-05-21T20:10:35.500Z,18.30
2019-05-21T20:13:04.372Z,17.25
2019-05-21T20:15:33.258Z,17.42
2019-05-21T20:18:07.439Z,16.50
2019-05-21T20:20:33.228Z,17.40
2019-05-21T20:23:03.043Z,17.62
2019-05-21T20:25:33.661Z,17.77
2019-05-21T20:28:03.070Z,19.05
2019-05-21T20:30:33.497Z,18.85
2019-05-21T20:33:02.415Z,15.98
2019-05-21T20:35:31.751Z,18.85
2019-05-21T20:38:04.584Z,17.67
2019-05-21T20:40:33.604Z,16.37
2019-05-21T20:43:02.631Z,18.80
2019-05-21T20:45:33.170Z,18.80
2019-05-21T20:48:02.810Z,18.40
2019-05-21T20:50:31.865Z,18.77
2019-05-21T20:53:00.994Z,19.50
2019-05-21T20:55:31.073Z,19.45
2019-05-21T20:58:00.254Z,19.65
2019-05-21T21:00:30.821Z,19.67
2019-05-21T21:03:00.657Z,19.70
2019-05-21T21:05:29.773Z,19.82
2019-05-21T21:07:58.635Z,19.07
2019-05-21T21:10:27.477Z,19.70
2019-05-21T21:12:56.557Z,19.73
2019-05-21T21:15:26.271Z,19.23
2019-05-21T21:17:55.224Z,21.45
2019-05-21T21:20:24.132Z,21.45
2019-05-21T21:22:53.073Z,22.45
